Time;durP1;ratioP1;P1;durP2;ratioP2;P2;SDS_P1;SDS_P2;PMS_P1;PMS_P2;Temp;Humidity;BMP_temperature;BMP_pressure;BME280_temperature;BME280_humidity;BME280_pressure;Samples;Min_cycle;Max_cycle;Signal;HPM_P1;HPM_P2
2022/01/24 00:01:57;;;;;;;28.37;12.93;;;;;;;-6.15;97.12;101615.25;1708571;82;21049;-64
2022/01/24 00:04:25;;;;;;;30.63;13.73;;;;;;;-6.21;97.09;101624.80;1711906;83;21097;-65
2022/01/24 00:06:52;;;;;;;29.47;14.00;;;;;;;-6.29;96.55;101623.48;1711969;83;21900;-67
2022/01/24 00:09:19;;;;;;;46.63;18.80;;;;;;;-6.40;96.34;101639.95;1711981;82;21082;-66
2022/01/24 00:12:01;;;;;;;39.03;17.50;;;;;;;-6.57;95.41;101646.70;1711980;82;21042;-67
2022/01/24 00:17:30;;;;;;;49.20;20.13;;;;;;;-7.03;97.21;101656.87;1711905;82;21458;-67
2022/01/24 00:27:58;;;;;;;53.27;20.93;;;;;;;-7.45;100.00;101680.02;1683645;85;21086;-65
2022/01/24 00:30:25;;;;;;;39.87;17.83;;;;;;;-7.51;100.00;101677.07;1683403;85;21637;-65
2022/01/24 00:32:52;;;;;;;28.30;14.50;;;;;;;-7.54;100.00;101682.02;1713562;82;21136;-65
2022/01/24 00:35:18;;;;;;;29.17;13.20;;;;;;;-7.59;100.00;101683.41;1711854;83;21044;-65
2022/01/24 00:37:45;;;;;;;33.00;14.80;;;;;;;-7.67;100.00;101685.48;1712059;82;21566;-67
2022/01/24 00:40:12;;;;;;;52.33;20.27;;;;;;;-7.76;100.00;101686.60;1711763;83;21027;-66
2022/01/24 00:42:52;;;;;;;31.53;15.20;;;;;;;-7.87;100.00;101691.95;1712086;83;21099;-66
2022/01/24 00:45:28;;;;;;;31.87;15.87;;;;;;;-7.96;100.00;101693.90;1711476;82;23313;-66
2022/01/24 00:55:29;;;;;;;40.30;17.07;;;;;;;-7.99;100.00;101695.40;1663794;85;21098;-65
2022/01/24 00:57:55;;;;;;;31.47;15.50;;;;;;;-8.02;100.00;101694.81;1664246;85;21144;-66
2022/01/24 01:00:22;;;;;;;67.17;24.80;;;;;;;-8.04;100.00;101687.44;1675964;82;21140;-66
2022/01/24 01:02:49;;;;;;;42.97;18.40;;;;;;;-8.04;100.00;101688.31;1683440;85;21066;-66
2022/01/24 01:05:34;;;;;;;69.83;24.03;;;;;;;-8.03;100.00;101682.80;1697157;84;21089;-66
2022/01/24 01:08:02;;;;;;;127.07;40.30;;;;;;;-8.05;100.00;101688.20;1714439;82;21052;-65
2022/01/24 01:18:40;;;;;;;39.33;16.43;;;;;;;-8.05;100.00;101689.48;1716557;83;21028;-67
2022/01/24 01:21:13;;;;;;;34.73;16.37;;;;;;;-8.03;100.00;101686.27;1711620;83;21102;-66
2022/01/24 01:23:39;;;;;;;42.43;18.03;;;;;;;-8.01;100.00;101694.89;1711857;82;21106;-65
2022/01/24 01:26:11;;;;;;;;;;;;;;;-7.96;100.00;101706.69;1712417;82;21147;-65
2022/01/24 01:28:35;;;;;;;110.97;36.13;;;;;;;-7.95;100.00;101707.59;1707181;83;20498;-64
2022/01/24 01:31:08;;;;;;;136.00;43.70;;;;;;;-7.99;100.00;101706.50;1706983;84;21100;-63
2022/01/24 01:52:32;;;;;;;117.73;38.27;;;;;;;-8.03;100.00;101713.48;1724960;83;21539;-65
2022/01/24 01:54:54;;;;;;;37.77;17.80;;;;;;;-7.98;100.00;101713.41;1723990;81;21120;-64
2022/01/24 01:57:21;;;;;;;35.80;15.67;;;;;;;-7.97;100.00;101707.89;1725469;83;21044;-66
2022/01/24 01:59:47;;;;;;;38.43;15.73;;;;;;;-7.96;100.00;101701.57;1725311;83;21043;-64
2022/01/24 02:02:14;;;;;;;84.47;28.40;;;;;;;-7.98;100.00;101704.45;1724579;83;21102;-65
2022/01/24 02:04:42;;;;;;;36.97;16.77;;;;;;;-7.99;100.00;101703.95;1722174;82;21295;-64
2022/01/24 02:07:12;;;;;;;44.70;18.87;;;;;;;-7.96;100.00;101707.97;1722467;83;21036;-72
2022/01/24 02:09:42;;;;;;;76.43;26.90;;;;;;;-7.97;100.00;101712.59;1724999;82;21049;-73
2022/01/24 02:12:10;;;;;;;75.33;25.07;;;;;;;-7.90;100.00;101715.16;1724576;82;21068;-70
2022/01/24 02:14:41;;;;;;;31.63;14.33;;;;;;;-7.90;100.00;101714.75;1695988;84;21633;-70
2022/01/24 02:17:13;;;;;;;28.67;13.53;;;;;;;-7.90;100.00;101716.03;1695422;84;21087;-70
2022/01/24 02:19:52;;;;;;;25.17;11.93;;;;;;;-7.93;100.00;101709.45;1658023;84;21048;-66
2022/01/24 02:22:27;;;;;;;25.40;11.57;;;;;;;-7.91;100.00;101715.55;1713100;83;21118;-68
2022/01/24 02:24:51;;;;;;;77.83;26.90;;;;;;;-7.93;100.00;101714.97;1722567;83;21077;-69
2022/01/24 02:27:10;;;;;;;47.53;17.73;;;;;;;-7.99;100.00;101714.17;1723724;82;21599;-68
2022/01/24 02:29:51;;;;;;;30.67;12.47;;;;;;;-7.99;100.00;101722.24;1724865;83;21027;-69
2022/01/24 02:32:11;;;;;;;25.10;12.53;;;;;;;-7.97;100.00;101727.06;1724122;81;21117;-69
2022/01/24 02:34:41;;;;;;;87.57;31.97;;;;;;;-8.00;100.00;101727.76;1720419;81;21308;-68
2022/01/24 02:37:14;;;;;;;205.83;63.13;;;;;;;-8.04;100.00;101727.06;1719425;83;21019;-69
2022/01/24 02:39:58;;;;;;;81.03;30.60;;;;;;;-8.06;100.00;101717.13;1696861;83;21073;-71
2022/01/24 02:53:25;;;;;;;25.30;11.47;;;;;;;-8.01;100.00;101719.58;1691351;84;21105;-68
2022/01/24 02:55:52;;;;;;;62.43;22.60;;;;;;;-8.02;100.00;101719.98;1690957;83;21129;-67
2022/01/24 02:58:19;;;;;;;38.33;15.73;;;;;;;-8.03;100.00;101715.67;1690785;83;21118;-67
2022/01/24 03:00:47;;;;;;;20.37;11.23;;;;;;;-8.04;100.00;101720.67;1691107;84;21554;-67
2022/01/24 03:03:14;;;;;;;32.60;13.70;;;;;;;-8.03;100.00;101719.88;1690825;84;22185;-65
2022/01/24 03:05:40;;;;;;;26.20;13.00;;;;;;;-8.03;100.00;101714.77;1690555;84;21194;-67
2022/01/24 03:08:07;;;;;;;25.30;11.33;;;;;;;-7.98;100.00;101721.08;1690513;84;21138;-66
2022/01/24 03:10:40;;;;;;;21.63;10.40;;;;;;;-7.94;100.00;101723.01;1690961;84;21066;-66
2022/01/24 03:15:55;;;;;;;244.83;68.03;;;;;;;-7.90;100.00;101730.09;1689359;84;21559;-66
2022/01/24 03:18:22;;;;;;;61.80;22.90;;;;;;;-7.87;100.00;101730.31;1689524;84;22242;-66
2022/01/24 03:20:48;;;;;;;58.40;20.27;;;;;;;-7.82;100.00;101734.44;1689252;84;21570;-65
2022/01/24 03:23:18;;;;;;;157.30;47.20;;;;;;;-7.77;100.00;101729.61;1689152;84;21546;-66
2022/01/24 03:25:45;;;;;;;25.93;14.37;;;;;;;-7.73;100.00;101722.59;1689745;84;21606;-67
2022/01/24 03:28:13;;;;;;;39.03;17.83;;;;;;;-7.69;100.00;101724.56;1689100;84;21054;-67
2022/01/24 03:30:40;;;;;;;47.40;18.63;;;;;;;-7.70;100.00;101731.75;1689327;84;21981;-68
2022/01/24 03:33:06;;;;;;;122.10;37.93;;;;;;;-7.74;100.00;101726.83;1690603;83;21055;-68
2022/01/24 03:35:33;;;;;;;25.50;12.33;;;;;;;-7.76;100.00;101725.84;1710487;83;21583;-67
2022/01/24 03:38:02;;;;;;;20.23;11.07;;;;;;;-7.75;100.00;101734.39;1710741;83;21094;-67
2022/01/24 03:40:29;;;;;;;33.33;16.27;;;;;;;-7.78;100.00;101731.66;1710507;83;21094;-68
2022/01/24 03:42:56;;;;;;;29.03;13.70;;;;;;;-7.74;100.00;101723.39;1710812;83;21815;-68
2022/01/24 03:48:05;;;;;;;40.23;15.37;;;;;;;-7.68;100.00;101726.34;1672405;83;21118;-70
2022/01/24 03:50:25;;;;;;;45.10;17.37;;;;;;;-7.65;100.00;101725.24;1709327;83;21115;-68
2022/01/24 03:52:51;;;;;;;57.60;20.63;;;;;;;-7.60;100.00;101730.24;1710267;83;21586;-68
2022/01/24 03:55:18;;;;;;;26.50;12.80;;;;;;;-7.55;100.00;101730.53;1710661;82;21079;-69
2022/01/24 03:57:45;;;;;;;23.20;12.43;;;;;;;-7.52;100.00;101734.17;1710415;83;21087;-69
2022/01/24 04:00:15;;;;;;;104.90;34.70;;;;;;;-7.50;100.00;101735.16;1710381;83;21042;-69
2022/01/24 04:02:42;;;;;;;123.05;41.25;;;;;;;-7.50;100.00;101726.20;1710905;83;21572;-69
2022/01/24 04:05:10;;;;;;;78.53;28.77;;;;;;;-7.48;100.00;101728.83;1710480;83;21165;-65
2022/01/24 04:07:37;;;;;;;124.83;42.63;;;;;;;-7.47;100.00;101721.26;1710382;83;21143;-65
2022/01/24 04:10:08;;;;;;;37.27;17.63;;;;;;;-7.50;100.00;101727.48;1710177;83;21051;-70
2022/01/24 04:12:38;;;;;;;135.33;45.10;;;;;;;-7.56;100.00;101721.97;1690924;83;21073;-69
2022/01/24 04:15:12;;;;;;;63.03;24.20;;;;;;;-7.59;100.00;101716.68;1711951;83;21048;-70
2022/01/24 04:17:47;;;;;;;127.53;44.10;;;;;;;-7.57;100.00;101715.06;1711804;83;21569;-70
2022/01/24 04:22:59;;;;;;;29.20;13.87;;;;;;;-7.56;100.00;101713.42;1711928;83;21027;-70
2022/01/24 04:25:25;;;;;;;24.90;12.10;;;;;;;-7.54;100.00;101710.56;1711820;82;21069;-70
2022/01/24 04:27:54;;;;;;;29.80;11.87;;;;;;;-7.56;100.00;101716.86;1711906;83;21061;-71
2022/01/24 04:30:22;;;;;;;30.50;13.20;;;;;;;-7.58;100.00;101719.71;1712173;83;21089;-69
2022/01/24 04:32:49;;;;;;;28.70;11.37;;;;;;;-7.64;100.00;101727.00;1711651;82;21098;-72
2022/01/24 04:35:15;;;;;;;30.77;12.80;;;;;;;-7.73;100.00;101738.84;1702237;83;21700;-69
2022/01/24 04:37:42;;;;;;;43.13;17.37;;;;;;;-7.78;100.00;101740.61;1695546;84;21060;-70
2022/01/24 04:40:11;;;;;;;25.13;11.17;;;;;;;-7.84;100.00;101739.44;1697489;83;21080;-70
2022/01/24 04:42:48;;;;;;;24.07;10.77;;;;;;;-7.88;100.00;101748.11;1724884;83;21088;-71
2022/01/24 04:45:27;;;;;;;27.83;11.97;;;;;;;-7.91;100.00;101750.08;1725526;82;21518;-71
2022/01/24 04:50:22;;;;;;;22.70;10.47;;;;;;;-7.89;100.00;101754.90;1725810;82;21568;-70
2022/01/24 04:53:01;;;;;;;30.67;12.13;;;;;;;-7.95;100.00;101759.61;1692166;82;22401;-70
2022/01/24 04:55:18;;;;;;;29.43;12.40;;;;;;;-7.95;100.00;101756.18;1723365;81;21081;-70
2022/01/24 04:57:46;;;;;;;33.37;13.60;;;;;;;-7.95;100.00;101766.41;1724726;82;21905;-69
2022/01/24 05:00:14;;;;;;;29.70;11.93;;;;;;;-7.95;100.00;101767.28;1724557;83;21112;-70
2022/01/24 05:02:40;;;;;;;28.87;11.07;;;;;;;-7.97;100.00;101779.08;1724227;83;21104;-71
2022/01/24 05:05:11;;;;;;;23.37;11.30;;;;;;;-8.00;100.00;101772.51;1723662;83;21052;-72
2022/01/24 05:07:36;;;;;;;23.30;10.33;;;;;;;-8.02;100.00;101769.84;1724247;82;21064;-72
2022/01/24 05:10:22;;;;;;;23.07;10.27;;;;;;;-7.99;100.00;101766.59;1724560;83;21918;-71
2022/01/24 05:23:34;;;;;;;25.23;11.53;;;;;;;-8.02;100.00;101772.80;1722793;83;21142;-70
2022/01/24 05:26:04;;;;;;;35.43;12.07;;;;;;;-8.04;100.00;101767.98;1724145;82;21632;-70
2022/01/24 05:28:32;;;;;;;40.93;16.43;;;;;;;-8.04;100.00;101769.25;1724120;82;21042;-70
2022/01/24 05:30:58;;;;;;;32.80;15.43;;;;;;;-8.03;100.00;101765.53;1724184;81;21029;-70
2022/01/24 05:33:25;;;;;;;43.83;15.13;;;;;;;-8.01;100.00;101772.00;1724162;81;21787;-66
2022/01/24 05:35:52;;;;;;;91.23;30.20;;;;;;;-7.98;100.00;101767.10;1712050;82;21075;-66
2022/01/24 05:38:21;;;;;;;185.93;53.80;;;;;;;-7.93;100.00;101770.83;1711288;82;21038;-65
2022/01/24 05:40:46;;;;;;;96.97;33.37;;;;;;;-7.92;100.00;101770.02;1711816;82;21098;-66
2022/01/24 05:43:14;;;;;;;160.03;52.37;;;;;;;-7.88;100.00;101765.61;1710188;82;21073;-66
2022/01/24 05:45:41;;;;;;;251.27;75.80;;;;;;;-7.83;100.00;101759.50;1709512;83;21637;-67
2022/01/24 05:48:08;;;;;;;115.33;38.33;;;;;;;-7.78;100.00;101759.80;1710654;82;22112;-63
2022/01/24 05:50:35;;;;;;;48.97;17.97;;;;;;;-7.77;100.00;101760.30;1709571;83;21065;-65
2022/01/24 05:53:02;;;;;;;59.83;21.37;;;;;;;-7.77;100.00;101759.91;1711467;82;21065;-63
2022/01/24 05:55:29;;;;;;;40.33;15.80;;;;;;;-7.78;100.00;101758.11;1711698;83;21558;-64
2022/01/24 05:57:55;;;;;;;115.90;36.63;;;;;;;-7.79;100.00;101759.31;1710965;83;21060;-65
2022/01/24 06:00:22;;;;;;;59.60;22.23;;;;;;;-7.81;100.00;101762.64;1711444;82;21208;-64
2022/01/24 06:02:49;;;;;;;67.43;22.33;;;;;;;-7.85;100.00;101761.95;1710035;83;21582;-63
2022/01/24 06:05:15;;;;;;;53.13;20.87;;;;;;;-7.83;100.00;101769.33;1709538;82;21142;-64
2022/01/24 06:07:42;;;;;;;31.47;13.87;;;;;;;-7.84;100.00;101766.30;1704038;83;21077;-63
2022/01/24 06:10:09;;;;;;;27.93;11.67;;;;;;;-7.83;100.00;101765.50;1684124;84;21064;-65
2022/01/24 06:12:35;;;;;;;26.57;12.03;;;;;;;-7.82;100.00;101771.52;1700555;83;21077;-63
2022/01/24 06:15:03;;;;;;;34.30;13.10;;;;;;;-7.84;100.00;101768.86;1682203;83;21594;-64
2022/01/24 06:17:30;;;;;;;29.67;12.03;;;;;;;-7.84;100.00;101776.53;1713361;82;21117;-64
2022/01/24 06:19:56;;;;;;;29.47;9.90;;;;;;;-7.87;100.00;101776.34;1707391;82;21061;-64
2022/01/24 06:22:23;;;;;;;29.97;11.57;;;;;;;-7.89;100.00;101780.47;1676987;84;21060;-65
2022/01/24 06:24:49;;;;;;;36.90;13.77;;;;;;;-7.89;100.00;101777.91;1710972;83;21516;-67
2022/01/24 06:27:16;;;;;;;201.97;60.57;;;;;;;-7.86;100.00;101785.77;1710909;82;21101;-64
2022/01/24 06:29:42;;;;;;;158.20;48.90;;;;;;;-7.84;100.00;101777.80;1712162;82;21093;-66
2022/01/24 06:32:09;;;;;;;110.53;36.03;;;;;;;-7.80;100.00;101781.42;1711807;82;21600;-65
2022/01/24 06:34:37;;;;;;;36.50;15.83;;;;;;;-7.79;100.00;101779.78;1715767;82;21061;-65
2022/01/24 06:37:05;;;;;;;189.80;58.03;;;;;;;-7.78;100.00;101776.02;1724392;83;21121;-66
2022/01/24 06:39:31;;;;;;;139.80;42.73;;;;;;;-7.75;100.00;101768.56;1724948;83;21049;-64
2022/01/24 06:42:21;;;;;;;200.40;58.63;;;;;;;-7.73;100.00;101773.75;1723222;81;21096;-65
2022/01/24 06:44:40;;;;;;;79.25;30.85;;;;;;;-7.69;100.00;101769.33;1724898;82;21044;-65
2022/01/24 06:47:07;;;;;;;56.20;21.40;;;;;;;-7.62;100.00;101767.64;1724150;83;21082;-65
2022/01/24 06:49:35;;;;;;;44.67;16.83;;;;;;;-7.58;100.00;101769.61;1724543;83;21761;-65
2022/01/24 06:52:03;;;;;;;26.13;11.97;;;;;;;-7.55;100.00;101772.34;1724764;81;21399;-68
2022/01/24 06:54:30;;;;;;;56.27;20.57;;;;;;;-7.53;100.00;101775.01;1725111;82;21112;-66
2022/01/24 06:56:56;;;;;;;50.17;17.50;;;;;;;-7.49;100.00;101775.70;1724714;83;21091;-64
2022/01/24 06:59:22;;;;;;;45.27;15.13;;;;;;;-7.44;100.00;101768.78;1724749;83;21112;-64
2022/01/24 07:01:49;;;;;;;43.07;15.37;;;;;;;-7.39;100.00;101769.94;1722442;83;21121;-65
2022/01/24 07:04:15;;;;;;;29.90;14.10;;;;;;;-7.34;100.00;101768.06;1723130;83;21061;-67
2022/01/24 07:06:42;;;;;;;28.50;12.83;;;;;;;-7.29;100.00;101762.83;1720855;83;21083;-66
2022/01/24 07:09:09;;;;;;;75.17;24.37;;;;;;;-7.39;100.00;101743.06;1720529;83;21084;-65
2022/01/24 07:11:35;;;;;;;52.07;18.70;;;;;;;-7.20;100.00;101768.51;1724512;82;21100;-65
2022/01/24 07:14:06;;;;;;;183.37;57.77;;;;;;;-7.15;100.00;101765.86;1724196;83;21572;-65
2022/01/24 07:16:47;;;;;;;276.73;85.03;;;;;;;-7.09;100.00;101763.64;1724388;82;21041;-65
2022/01/24 07:18:59;;;;;;;190.07;57.70;;;;;;;-7.04;100.00;101767.39;1722064;82;21073;-65
2022/01/24 07:21:25;;;;;;;103.07;33.20;;;;;;;-6.97;100.00;101767.34;1723261;83;21492;-65
2022/01/24 07:23:52;;;;;;;78.53;28.77;;;;;;;-6.90;100.00;101764.75;1721114;83;21105;-65
2022/01/24 07:26:18;;;;;;;110.57;36.63;;;;;;;-6.86;100.00;101770.55;1724544;83;21589;-65
2022/01/24 07:28:45;;;;;;;154.60;46.27;;;;;;;-6.84;100.00;101765.13;1724473;83;21125;-65
2022/01/24 07:31:12;;;;;;;72.93;28.97;;;;;;;-6.79;100.00;101760.74;1722941;81;21597;-65
2022/01/24 07:33:40;;;;;;;38.27;15.80;;;;;;;-6.73;100.00;101758.95;1723623;83;21714;-65
2022/01/24 07:36:06;;;;;;;36.07;15.10;;;;;;;-6.69;100.00;101768.60;1713949;82;21156;-65
2022/01/24 07:38:34;;;;;;;28.00;12.43;;;;;;;-6.64;100.00;101764.63;1711982;83;21199;-65
2022/01/24 07:41:01;;;;;;;38.07;16.57;;;;;;;-6.59;100.00;101759.77;1711412;83;21050;-65
2022/01/24 07:43:28;;;;;;;33.07;13.90;;;;;;;-6.51;100.00;101766.61;1710835;82;21573;-65
2022/01/24 07:45:54;;;;;;;30.83;13.20;;;;;;;-6.49;100.00;101757.33;1710679;83;21105;-66
2022/01/24 07:48:21;;;;;;;29.20;14.07;;;;;;;-6.46;100.00;101753.69;1711005;82;21648;-65
2022/01/24 07:50:51;;;;;;;24.60;12.77;;;;;;;-6.42;100.00;101758.17;1711254;83;21208;-65
2022/01/24 07:53:16;;;;;;;30.37;13.60;;;;;;;-6.37;100.00;101758.06;1711045;82;21781;-66
2022/01/24 07:55:44;;;;;;;26.20;11.33;;;;;;;-6.27;100.00;101754.34;1711551;83;21101;-65
2022/01/24 07:58:11;;;;;;;68.80;25.13;;;;;;;-6.19;100.00;101756.55;1711354;83;21084;-65
2022/01/24 08:00:37;;;;;;;125.03;42.07;;;;;;;-6.13;100.00;101750.87;1710358;82;21210;-65
2022/01/24 08:03:06;;;;;;;57.20;21.90;;;;;;;-6.07;100.00;101749.03;1711066;83;21109;-64
2022/01/24 08:05:33;;;;;;;198.53;66.60;;;;;;;-6.01;100.00;101750.67;1710873;83;21078;-65
2022/01/24 08:08:04;;;;;;;133.30;45.87;;;;;;;-5.96;100.00;101742.83;1711370;83;21954;-65
2022/01/24 08:10:30;;;;;;;35.20;16.20;;;;;;;-5.88;100.00;101747.96;1710336;83;21086;-64
2022/01/24 08:12:57;;;;;;;111.37;39.07;;;;;;;-5.84;100.00;101738.36;1708804;82;21074;-65
2022/01/24 08:15:24;;;;;;;127.40;44.20;;;;;;;-5.85;100.00;101736.58;1710231;82;21105;-66
2022/01/24 08:17:51;;;;;;;104.70;37.90;;;;;;;-5.78;100.00;101745.09;1709951;83;21048;-66
2022/01/24 08:20:20;;;;;;;58.43;21.27;;;;;;;-5.67;100.00;101738.39;1708440;83;21586;-65
2022/01/24 08:22:46;;;;;;;43.90;18.67;;;;;;;-5.61;100.00;101739.98;1709812;83;21090;-65
2022/01/24 08:25:13;;;;;;;61.33;22.23;;;;;;;-5.57;100.00;101736.80;1710686;83;21080;-65
2022/01/24 08:27:40;;;;;;;32.50;15.30;;;;;;;-5.52;100.00;101732.78;1710920;82;21124;-66
2022/01/24 08:30:11;;;;;;;37.77;16.03;;;;;;;-5.48;100.00;101731.75;1710899;82;21116;-65
2022/01/24 08:32:39;;;;;;;28.53;12.37;;;;;;;-5.48;100.00;101737.29;1711459;83;21065;-65
2022/01/24 08:35:08;;;;;;;42.23;16.13;;;;;;;-5.47;100.00;101733.94;1713547;83;21033;-65
2022/01/24 08:37:37;;;;;;;43.40;18.37;;;;;;;-5.44;100.00;101733.22;1724641;81;21081;-65
2022/01/24 08:40:06;;;;;;;34.73;13.90;;;;;;;-5.37;100.00;101734.89;1724785;83;21133;-66
2022/01/24 08:42:42;;;;;;;42.40;17.13;;;;;;;-5.31;100.00;101739.08;1724050;83;21045;-65
2022/01/24 08:47:36;;;;;;;47.00;18.13;;;;;;;-5.20;100.00;101727.19;1724433;83;21474;-65
2022/01/24 08:50:04;;;;;;;33.45;16.20;;;;;;;-5.10;100.00;101733.31;1724799;83;21049;-67
2022/01/24 08:52:31;;;;;;;28.93;14.20;;;;;;;-5.00;100.00;101730.40;1723812;81;21088;-65
2022/01/24 08:54:57;;;;;;;36.07;15.77;;;;;;;-4.93;100.00;101727.75;1724715;83;21013;-65
2022/01/24 08:57:26;;;;;;;47.17;19.13;;;;;;;-4.90;100.00;101737.80;1724671;82;21074;-66
2022/01/24 08:59:54;;;;;;;41.27;18.50;;;;;;;-4.82;100.00;101727.02;1718216;83;21048;-66
2022/01/24 09:02:22;;;;;;;44.93;19.40;;;;;;;-4.78;100.00;101725.09;1717819;81;21118;-62
2022/01/24 09:04:52;;;;;;;55.77;21.23;;;;;;;-4.73;100.00;101722.34;1708997;83;21041;-65
2022/01/24 09:07:20;;;;;;;36.10;16.17;;;;;;;-4.67;100.00;101723.91;1721350;81;21659;-64
2022/01/24 09:09:47;;;;;;;42.97;17.20;;;;;;;-4.58;100.00;101711.93;1719094;83;21053;-64
2022/01/24 09:12:17;;;;;;;33.47;15.10;;;;;;;-4.51;100.00;101713.62;1724421;82;21049;-65
2022/01/24 09:14:47;;;;;;;32.85;14.03;;;;;;;-4.48;100.00;101715.05;1723508;82;21510;-64
2022/01/24 09:17:15;;;;;;;28.17;13.00;;;;;;;-4.48;99.69;101716.74;1723289;83;21155;-63
2022/01/24 09:19:42;;;;;;;31.93;14.07;;;;;;;-4.48;99.66;101712.47;1722563;83;21073;-64
2022/01/24 09:22:09;;;;;;;26.40;12.17;;;;;;;-4.48;99.38;101715.05;1724702;82;21072;-64
2022/01/24 09:24:36;;;;;;;29.43;12.57;;;;;;;-4.48;99.33;101708.62;1715180;83;21545;-66
2022/01/24 09:27:04;;;;;;;32.33;14.50;;;;;;;-4.43;99.42;101707.14;1724026;83;22150;-65
2022/01/24 09:29:32;;;;;;;32.63;14.03;;;;;;;-4.35;99.13;101713.06;1724919;81;21002;-64
2022/01/24 09:31:59;;;;;;;36.60;15.07;;;;;;;-4.32;98.39;101703.82;1724481;83;21105;-64
2022/01/24 09:34:26;;;;;;;30.83;14.10;;;;;;;-4.26;98.34;101708.37;1719653;83;21109;-64
2022/01/24 09:36:53;;;;;;;32.47;13.77;;;;;;;-4.17;96.91;101701.50;1713035;81;21293;-64
2022/01/24 09:39:19;;;;;;;27.27;12.20;;;;;;;-4.21;95.47;101699.17;1698957;82;21033;-62
2022/01/24 09:41:46;;;;;;;32.60;14.27;;;;;;;-4.21;95.17;101696.59;1695485;83;21094;-64
2022/01/24 09:44:13;;;;;;;30.57;14.10;;;;;;;-4.16;95.52;101695.16;1710264;83;21038;-64
2022/01/24 09:46:41;;;;;;;30.47;14.40;;;;;;;-4.08;95.53;101692.52;1711824;83;21057;-64
2022/01/24 09:50:20;;;;;;;33.37;14.13;;;;;;;-3.86;94.54;101686.70;1794788;79;22658;-64
2022/01/24 09:52:47;;;;;;;25.87;13.50;;;;;;;-3.88;92.32;101690.02;1727223;82;21580;-64
2022/01/24 09:55:18;;;;;;;32.33;14.27;;;;;;;-3.86;91.98;101681.55;1719276;82;21137;-67
2022/01/24 09:57:47;;;;;;;;;;;;;;;-3.79;92.12;101682.72;1719799;82;21057;-64
2022/01/24 10:00:16;;;;;;;32.67;13.77;;;;;;;-3.70;90.74;101683.55;1717363;82;20140;-65
2022/01/24 10:02:44;;;;;;;28.05;12.20;;;;;;;-3.71;89.89;101680.08;1723593;82;22240;-65
2022/01/24 10:05:18;;;;;;;32.77;15.30;;;;;;;-3.68;90.14;101679.33;1728437;82;20965;-65
2022/01/24 10:07:59;;;;;;;29.18;14.47;;;;;;;-3.42;89.11;101673.67;1722983;82;21960;-66
2022/01/24 10:10:43;;;;;;;27.00;13.08;;;;;;;-2.62;88.03;101671.94;1719651;82;21071;-65
2022/01/24 10:16:33;;;;;;;32.35;15.58;;;;;;;-0.51;77.81;101662.47;1723947;82;21077;-64
2022/01/24 10:19:22;;;;;;;26.93;13.58;;;;;;;0.33;74.13;101648.66;1735862;82;21099;-66
2022/01/24 10:21:52;;;;;;;40.33;16.93;;;;;;;1.12;72.43;101640.43;1734535;82;21567;-65
2022/01/24 10:24:44;;;;;;;29.87;14.70;;;;;;;1.58;66.94;101640.27;1720763;82;21077;-66
2022/01/24 10:27:16;;;;;;;27.77;14.65;;;;;;;2.04;64.56;101629.64;1717189;82;21065;-65
2022/01/24 10:29:54;;;;;;;26.68;14.53;;;;;;;2.34;60.64;101629.41;1720273;82;21057;-65
2022/01/24 10:32:46;;;;;;;33.90;17.57;;;;;;;2.50;59.06;101624.10;1729840;82;21552;-63
2022/01/24 10:35:47;;;;;;;38.05;17.37;;;;;;;2.80;56.94;101619.03;1718142;82;21847;-64
2022/01/24 10:38:25;;;;;;;26.60;14.75;;;;;;;3.37;54.77;101617.00;1719465;82;21072;-64
2022/01/24 10:40:52;;;;;;;29.70;14.85;;;;;;;3.60;50.72;101608.25;1718500;82;21061;-64
2022/01/24 10:43:24;;;;;;;30.75;15.85;;;;;;;3.58;52.90;101612.55;1726006;82;21589;-64
2022/01/24 10:45:52;;;;;;;29.32;15.85;;;;;;;3.53;52.94;101612.48;1675324;85;21122;-66
2022/01/24 10:48:27;;;;;;;34.63;17.50;;;;;;;3.64;52.17;101614.39;1667412;84;21766;-67
2022/01/24 10:51:17;;;;;;;28.83;15.38;;;;;;;3.92;50.81;101599.59;1667484;85;21095;-65
2022/01/24 10:53:51;;;;;;;42.95;19.35;;;;;;;3.81;49.46;101592.48;1667490;83;21084;-65
2022/01/24 10:56:43;;;;;;;64.37;29.98;;;;;;;3.20;52.29;101609.32;1680703;82;21116;-66
2022/01/24 10:59:18;;;;;;;38.50;18.07;;;;;;;2.87;54.11;101604.86;1663935;84;21115;-69
2022/01/24 11:01:51;;;;;;;33.63;17.02;;;;;;;2.85;53.85;101605.68;1671876;85;21775;-64
2022/01/24 11:04:18;;;;;;;35.50;16.90;;;;;;;3.19;51.46;101606.28;1662770;85;21833;-64
2022/01/24 11:06:48;;;;;;;31.37;16.87;;;;;;;3.65;52.32;101603.97;1668382;84;21069;-67
2022/01/24 11:09:22;;;;;;;31.70;17.30;;;;;;;4.10;51.87;101599.41;1666279;85;21069;-66
2022/01/24 11:12:05;;;;;;;42.58;20.72;;;;;;;4.60;48.60;101593.48;1665393;84;21072;-69
2022/01/24 11:14:31;;;;;;;40.90;17.80;;;;;;;4.75;47.45;101592.76;1698740;83;22023;-67
2022/01/24 11:16:59;;;;;;;59.80;24.37;;;;;;;4.72;47.33;101594.48;1678442;84;21100;-65
2022/01/24 11:19:36;;;;;;;35.68;15.43;;;;;;;4.80;47.57;101591.06;1676370;84;21199;-68
2022/01/24 11:22:04;;;;;;;61.40;27.55;;;;;;;4.69;46.99;101580.94;1682144;84;21544;-65
2022/01/24 11:24:38;;;;;;;34.70;17.17;;;;;;;4.55;47.95;101583.84;1678418;84;21052;-66
2022/01/24 11:26:58;;;;;;;25.43;13.90;;;;;;;4.47;47.18;101581.59;1679261;84;21074;-67
2022/01/24 11:29:24;;;;;;;33.48;16.95;;;;;;;4.51;46.40;101575.53;1683254;84;21025;-68
2022/01/24 11:32:02;;;;;;;27.73;13.78;;;;;;;4.41;49.21;101575.42;1683483;84;21147;-68
2022/01/24 11:34:36;;;;;;;25.10;13.30;;;;;;;4.37;46.02;101568.45;1682822;84;21591;-68
2022/01/24 11:37:04;;;;;;;28.12;14.25;;;;;;;4.25;47.75;101568.72;1688336;84;22108;-66
2022/01/24 11:39:32;;;;;;;27.70;13.98;;;;;;;4.38;47.20;101570.19;1682626;84;21137;-67
2022/01/24 11:41:59;;;;;;;24.10;13.00;;;;;;;4.46;44.96;101570.70;1681085;84;21153;-67
2022/01/24 11:44:27;;;;;;;36.58;17.45;;;;;;;4.10;45.61;101572.89;1679499;84;21080;-67
2022/01/24 11:46:56;;;;;;;27.60;14.23;;;;;;;4.09;46.29;101563.74;1621893;84;21067;-70
2022/01/24 11:49:35;;;;;;;31.73;14.95;;;;;;;4.23;48.48;101566.08;1674601;84;21060;-67
2022/01/24 11:52:13;;;;;;;26.82;12.68;;;;;;;4.31;46.69;101564.45;1723054;82;21092;-68
2022/01/24 11:54:51;;;;;;;22.25;12.23;;;;;;;4.32;46.46;101564.89;1716306;82;21022;-69
2022/01/24 11:57:37;;;;;;;23.27;12.50;;;;;;;3.98;45.55;101567.10;1657769;85;21202;-69
2022/01/24 12:00:10;;;;;;;28.12;12.23;;;;;;;3.64;46.87;101574.02;1666483;84;21034;-68
2022/01/24 12:02:52;;;;;;;21.00;11.22;;;;;;;3.38;46.41;101571.86;1653659;85;21145;-68
2022/01/24 12:05:31;;;;;;;42.98;11.75;;;;;;;3.14;46.05;101574.53;1669926;85;21141;-65
2022/01/24 12:08:04;;;;;;;27.35;11.65;;;;;;;2.95;47.31;101580.30;1669496;85;21548;-65
2022/01/24 12:10:38;;;;;;;20.02;10.58;;;;;;;2.89;47.07;101578.44;1676450;85;21117;-65
2022/01/24 12:13:26;;;;;;;26.40;12.50;;;;;;;2.90;47.92;101576.31;1648078;85;21133;-67
2022/01/24 12:15:59;;;;;;;34.67;16.52;;;;;;;3.03;47.90;101570.88;1669825;85;22206;-68
2022/01/24 12:18:33;;;;;;;19.57;10.08;;;;;;;3.05;49.53;101574.38;1669010;84;22150;-66
2022/01/24 12:21:11;;;;;;;18.90;10.80;;;;;;;3.31;47.92;101579.13;1672616;85;21153;-68
2022/01/24 12:23:41;;;;;;;24.32;11.33;;;;;;;3.39;45.41;101573.63;1670046;85;21110;-69
2022/01/24 12:26:18;;;;;;;22.25;10.82;;;;;;;3.38;46.32;101565.35;1723208;82;21109;-69
2022/01/24 12:28:53;;;;;;;20.88;11.33;;;;;;;3.43;45.49;101570.23;1720345;82;21101;-65
2022/01/24 12:31:42;;;;;;;34.80;16.02;;;;;;;3.34;45.93;101569.66;1725153;82;21692;-64
2022/01/24 12:34:22;;;;;;;23.02;11.20;;;;;;;3.52;46.91;101559.95;1725139;82;21058;-64
2022/01/24 12:37:00;;;;;;;21.35;10.93;;;;;;;3.54;46.24;101568.67;1711393;82;21134;-65
2022/01/24 12:39:32;;;;;;;19.10;10.68;;;;;;;3.74;46.52;101566.77;1725112;82;21534;-66
2022/01/24 12:42:01;;;;;;;26.93;12.65;;;;;;;3.51;45.23;101562.09;1726559;82;21073;-67